Main page
METAR-TAF:

METAR-TAF

Airports :

Gillespie County Airport

Fredericksburg, Texas, United States

latitude: 30-14-37N, longitude: 098-54-34W, elevation: 1696 ft

Current weather observation

The report was made 31 minutes ago, at 09:15 UTC
Wind 3 mph from the Southwest
Temperature 72°F
Humidity 94%
Pressure 29.84 in. Hg
Visibility: 5 miles
Overcast at a height of 1100 ft
mist

METAR: KT82 190915Z AUTO 22003KT 5SM BR OVC011 22/21 A2984 RMK AO2 T02200208

Time: 04:46 (09:46 UTC)


TAF: missing

Weather observations and forecasts of more than 4000 airports (METAR and TAF reports).

The available stations are represented by yellow and red dots on the map.

Hover mouse over dot to see the name of the station.

Then click to see weather observations and forecasts.

To change the map : click on the green buttons with a black cross to zoom in, on the green button with a dash to zoom out, or on the green arrows for adjacent maps.


METAR-TAF: